aviador You're here:

LFSL Decoded Metar

BRIVE in FRANCE
Report Time2017-08-18 04:30:00
UTC Time2017-08-18 04:53:39
Flight Rules vfr VFR
Wind310° at 03 kt
W.Decomp.*RWY 29: 2.8 kt HW 1.0 kt RCW
W.Rank310° ranks 6
Current wind is below 310° avg. (6.1)
Visibility9999 m
Phenomena:N/A
Clouds:N/A
Expected CloudBase > 400 ft AGL from Temp-Dew spread
CeilingNone
Temp16°C (ISA +3)
Dew Point15°C (94% RH)
QNH1018 hPa
Density Alt1,434 ft
Elevation1,016 ft
Report Wrong Elevation
Raw Report
LFSL 180430Z AUTO 31003KT CAVOK 16/15 Q1018 NOSIG=

Extra information for LFSL:More info

Metar Taf Metar & Taf Last 4 Metars F.Rules Stats Wind Profile Meteogram Temp Stats Airport Information Weather charts Add Link Nearby VenuesMetar ALERT Operation Metar Decoded Social comments